Terminal Aerodrome Forecast
Issued by NWS Boston, MA

Home | Current Version | Previous Version | Text Only | Print | Product List | Glossary On
Versions: 1 2 3 4 5 6 7 8 9 10 11 12 13 14 15 16 17 18 19 20 21 22 23 24 25 26 27 28
000
FTUS41 KBOX 291132
TAFORH
TAF
KORH 291132Z 2912/3012 VRB03KT P6SM -SHRA OVC080
     FM292100 04005KT P6SM VCSH BKN090
     FM300100 02004KT P6SM BKN200
     FM300400 34005KT P6SM SCT110
     FM300700 33005KT 4SM BR SCT150
     FM301000 34006KT P6SM SCT140=

USA.gov is the U.S. government's official web portal to all federal, state and local government web resources and services.